Time;durP1;ratioP1;P1;durP2;ratioP2;P2;SDS_P1;SDS_P2;PMS_P1;PMS_P2;Temp;Humidity;BMP_temperature;BMP_pressure;BME280_temperature;BME280_humidity;BME280_pressure;Samples;Min_cycle;Max_cycle;Signal;HPM_P1;HPM_P2
2021/09/28 00:00:10;;;;;;;;;8.50;7.00;;;;;21.71;52.22;101481.47;6247142;22;58169;-74
2021/09/28 00:02:36;;;;;;;;;7.25;6.25;;;;;21.80;51.16;101498.97;6220452;22;45999;-74
2021/09/28 00:05:01;;;;;;;;;8.00;5.75;;;;;21.74;51.81;101491.19;6248125;22;45233;-74
2021/09/28 00:07:26;;;;;;;;;6.50;6.00;;;;;21.81;51.46;101503.41;6248187;22;45387;-74
2021/09/28 00:09:52;;;;;;;;;7.50;6.25;;;;;21.76;50.88;101491.13;6247611;22;61670;-74
2021/09/28 00:12:18;;;;;;;;;7.00;5.00;;;;;21.69;51.96;101495.72;6220781;22;45689;-74
2021/09/28 00:14:44;;;;;;;;;6.50;5.50;;;;;21.81;51.81;101511.38;6221190;22;45201;-74
2021/09/28 00:17:09;;;;;;;;;7.00;6.00;;;;;21.84;52.20;101505.97;6247994;22;45214;-74
2021/09/28 00:19:35;;;;;;;;;4.00;3.50;;;;;21.89;52.12;101506.75;6248467;22;45162;-74
2021/09/28 00:22:00;;;;;;;;;8.00;5.25;;;;;21.91;50.92;101512.00;6248190;22;45236;-73
2021/09/28 00:24:26;;;;;;;;;7.00;7.00;;;;;21.93;51.73;101519.03;6248278;22;45170;-74
2021/09/28 00:26:51;;;;;;;;;6.00;4.50;;;;;21.84;51.25;101511.28;6220482;22;45228;-74
2021/09/28 00:29:17;;;;;;;;;4.25;4.25;;;;;21.83;51.67;101509.53;6220833;22;45374;-74
2021/09/28 00:31:42;;;;;;;;;7.25;5.50;;;;;21.88;51.13;101518.25;6245746;22;47320;-74
2021/09/28 00:34:07;;;;;;;;;6.00;6.00;;;;;21.80;51.37;101516.69;6194523;22;58067;-74
2021/09/28 00:36:33;;;;;;;;;7.50;6.50;;;;;21.72;51.14;101512.47;6248330;22;45842;-74
2021/09/28 00:38:58;;;;;;;;;6.25;5.25;;;;;21.75;51.85;101524.81;6215193;22;50857;-80
2021/09/28 00:41:23;;;;;;;;;7.50;6.25;;;;;21.72;51.93;101528.41;6217183;22;46525;-74
2021/09/28 00:43:54;;;;;;;;;5.00;5.00;;;;;21.72;52.17;101524.88;6164821;22;46383;-74
2021/09/28 00:46:20;;;;;;;;;4.50;4.50;;;;;21.75;52.42;101527.47;6215469;22;45229;-74
2021/09/28 00:48:46;;;;;;;;;7.00;5.75;;;;;21.71;51.50;101525.78;6190551;22;45246;-73
2021/09/28 00:51:11;;;;;;;;;4.25;4.25;;;;;21.65;51.40;101528.59;6215637;22;45227;-73
2021/09/28 00:53:39;;;;;;;;;4.00;3.50;;;;;21.57;51.85;101530.56;6217385;22;45140;-74
2021/09/28 00:56:06;;;;;;;;;7.25;6.50;;;;;21.50;51.64;101515.69;6191244;22;45287;-74
2021/09/28 00:58:32;;;;;;;;;4.25;4.25;;;;;21.45;51.98;101523.72;6215650;22;45227;-74
2021/09/28 01:01:01;;;;;;;;;6.75;6.25;;;;;21.38;52.07;101504.44;6189919;22;47136;-74
2021/09/28 01:03:26;;;;;;;;;10.50;6.00;;;;;21.45;51.75;101513.97;6216741;22;45149;-74
2021/09/28 01:05:52;;;;;;;;;6.25;5.00;;;;;21.50;52.63;101515.69;6215746;22;45165;-74
2021/09/28 01:08:17;;;;;;;;;6.25;4.75;;;;;21.55;52.71;101516.44;6189229;22;63296;-74
2021/09/28 01:10:43;;;;;;;;;7.50;5.00;;;;;21.54;52.55;101501.41;6216592;22;61800;-74
2021/09/28 01:13:08;;;;;;;;;6.50;5.50;;;;;21.62;52.57;101520.69;6216643;22;61094;-74
2021/09/28 01:15:33;;;;;;;;;4.00;3.50;;;;;21.61;52.09;101524.25;6215610;22;45844;-73
2021/09/28 01:18:00;;;;;;;;;6.00;4.75;;;;;21.56;51.55;101515.53;6215442;22;45340;-74
2021/09/28 01:20:25;;;;;;;;;5.50;5.00;;;;;21.55;52.05;101513.78;6214624;22;45339;-74
2021/09/28 01:22:50;;;;;;;;;4.00;4.00;;;;;21.48;52.43;101509.53;6215309;22;45374;-74
2021/09/28 01:25:16;;;;;;;;;4.50;2.00;;;;;21.49;51.61;101513.94;6215402;22;45257;-74
2021/09/28 01:27:41;;;;;;;;;5.00;5.00;;;;;21.40;52.15;101505.28;6215492;22;45371;-73
2021/09/28 01:30:09;;;;;;;;;6.00;6.00;;;;;21.48;52.77;101510.41;6215947;22;59014;-74
2021/09/28 01:32:34;;;;;;;;;5.75;5.75;;;;;21.49;52.77;101506.84;6215100;22;45205;-74
2021/09/28 01:35:01;;;;;;;;;6.75;5.25;;;;;21.53;52.64;101512.94;6215224;22;45150;-74
2021/09/28 01:37:26;;;;;;;;;5.00;5.00;;;;;21.53;51.84;101505.84;6190390;22;45438;-74
2021/09/28 01:39:51;;;;;;;;;7.00;6.00;;;;;21.47;51.94;101499.81;6189940;22;45187;-74
2021/09/28 01:42:17;;;;;;;;;4.50;4.50;;;;;21.41;51.83;101507.00;6215179;22;45588;-74
2021/09/28 01:44:42;;;;;;;;;6.25;5.50;;;;;21.37;52.26;101500.03;6190552;22;45246;-74
2021/09/28 01:47:08;;;;;;;;;6.00;6.00;;;;;21.37;52.40;101499.13;6164255;22;45402;-74
2021/09/28 01:49:34;;;;;;;;;4.75;4.00;;;;;21.36;51.78;101495.59;6214770;22;48069;-74
2021/09/28 01:52:00;;;;;;;;;3.75;3.75;;;;;21.30;51.88;101495.78;6215336;22;45283;-74
2021/09/28 01:54:25;;;;;;;;;6.25;5.00;;;;;21.29;52.35;101490.50;6189817;22;45191;-73
2021/09/28 01:56:51;;;;;;;;;4.00;4.00;;;;;21.26;52.16;101496.69;6216393;22;52323;-74
2021/09/28 01:59:16;;;;;;;;;4.00;4.00;;;;;21.21;51.58;101484.47;6216350;22;56530;-74
2021/09/28 02:01:42;;;;;;;;;4.25;4.25;;;;;21.19;52.21;101487.13;6215210;22;45357;-73
2021/09/28 02:04:07;;;;;;;;;4.75;4.00;;;;;21.19;52.54;101484.47;6216864;22;45266;-74
2021/09/28 02:06:37;;;;;;;;;5.25;5.25;;;;;21.15;52.36;101475.72;6216194;22;51003;-74
2021/09/28 02:09:03;;;;;;;;;5.25;3.50;;;;;21.19;51.81;101479.16;6214968;22;46379;-73
2021/09/28 02:11:29;;;;;;;;;10.75;5.75;;;;;21.07;52.14;101466.19;6216723;22;45371;-73
2021/09/28 02:13:54;;;;;;;;;4.75;4.75;;;;;21.02;52.22;101454.78;6215163;22;45742;-74
2021/09/28 02:16:20;;;;;;;;;5.00;5.00;;;;;21.08;52.50;101470.59;6216357;22;45390;-74
2021/09/28 02:18:45;;;;;;;;;5.00;4.75;;;;;21.07;52.71;101459.09;6214343;22;56486;-73
2021/09/28 02:21:11;;;;;;;;;8.00;6.50;;;;;21.13;52.40;101469.59;6189812;22;45315;-73
2021/09/28 02:23:36;;;;;;;;;5.50;5.25;;;;;21.06;51.77;101464.44;6216653;22;45767;-74
2021/09/28 02:26:01;;;;;;;;;5.00;5.00;;;;;21.02;51.64;101466.28;6214461;22;49863;-74
2021/09/28 02:28:27;;;;;;;;;4.75;4.75;;;;;20.92;51.90;101459.44;6215757;22;56813;-73
2021/09/28 02:30:52;;;;;;;;;6.25;6.25;;;;;20.89;52.51;101449.75;6215231;22;45334;-74
2021/09/28 02:33:18;;;;;;;;;5.50;4.75;;;;;20.89;52.39;101451.53;6215845;22;45771;-73
2021/09/28 02:35:43;;;;;;;;;6.50;6.50;;;;;20.98;52.28;101466.38;6216682;22;45427;-74
2021/09/28 02:38:09;;;;;;;;;6.00;5.25;;;;;20.91;52.45;101460.34;6217779;22;45216;-74
2021/09/28 02:40:35;;;;;;;;;6.75;5.50;;;;;20.86;52.82;101462.25;6190946;22;45187;-74
2021/09/28 02:43:01;;;;;;;;;8.00;5.00;;;;;20.87;52.84;101456.03;6190839;22;45181;-74
2021/09/28 02:45:26;;;;;;;;;4.50;4.50;;;;;20.77;52.56;101442.09;6215702;22;45158;-74
2021/09/28 02:47:52;;;;;;;;;6.50;5.00;;;;;20.85;53.08;101455.19;6190314;22;46858;-74
2021/09/28 02:50:17;;;;;;;;;7.75;5.00;;;;;20.87;52.56;101448.06;6215739;22;45477;-74
2021/09/28 02:52:43;;;;;;;;;4.50;4.25;;;;;20.84;52.73;101446.31;6215805;22;56218;-74
2021/09/28 02:55:08;;;;;;;;;5.75;5.00;;;;;20.77;52.77;101436.78;6191211;22;45445;-74
2021/09/28 02:57:36;;;;;;;;;5.25;4.50;;;;;20.83;53.13;101443.72;6191170;22;45390;-74
2021/09/28 03:00:02;;;;;;;;;4.00;3.75;;;;;20.85;52.65;101447.22;6191224;22;45413;-75
2021/09/28 03:02:28;;;;;;;;;5.50;4.00;;;;;20.86;52.64;101454.28;6191153;22;45276;-74
2021/09/28 03:04:53;;;;;;;;;4.00;4.00;;;;;20.83;52.56;101452.53;6215522;22;58021;-74
2021/09/28 03:07:18;;;;;;;;;6.50;5.50;;;;;20.71;52.93;101426.28;6190902;22;46577;-74
2021/09/28 03:09:44;;;;;;;;;6.50;5.00;;;;;20.82;52.31;101447.28;6216288;22;45166;-74
2021/09/28 03:12:09;;;;;;;;;5.75;5.00;;;;;20.75;53.38;101430.59;6217805;22;45461;-74
2021/09/28 03:14:35;;;;;;;;;4.50;3.25;;;;;20.84;53.39;101440.16;6217903;22;45216;-74
2021/09/28 03:17:00;;;;;;;;;5.00;5.00;;;;;20.87;52.60;101448.94;6189926;22;48120;-74
2021/09/28 03:19:26;;;;;;;;;4.75;3.75;;;;;20.84;52.50;101445.44;6217906;22;45145;-73
2021/09/28 03:21:52;;;;;;;;;4.25;4.00;;;;;20.76;52.54;101429.72;6217934;22;45102;-74
2021/09/28 03:24:17;;;;;;;;;5.00;4.00;;;;;20.81;52.75;101440.22;6217954;22;45281;-74
2021/09/28 03:26:43;;;;;;;;;3.75;3.75;;;;;20.77;52.92;101430.59;6217685;22;45247;-74
2021/09/28 03:29:09;;;;;;;;;4.75;4.75;;;;;20.83;52.63;101444.59;6217880;22;45439;-74
2021/09/28 03:31:34;;;;;;;;;5.75;4.25;;;;;20.71;52.39;101433.38;6214735;22;55897;-74
2021/09/28 03:33:59;;;;;;;;;6.00;6.00;;;;;20.80;52.50;101446.44;6215983;22;45337;-74
2021/09/28 03:36:25;;;;;;;;;6.00;5.25;;;;;20.74;52.48;101444.78;6190202;22;46210;-74
2021/09/28 03:38:50;;;;;;;;;4.50;3.50;;;;;20.71;53.04;101439.56;6225387;22;45397;-74
2021/09/28 03:41:16;;;;;;;;;4.00;3.00;;;;;20.73;53.02;101443.03;6220887;22;48315;-74
2021/09/28 03:43:41;;;;;;;;;7.00;5.00;;;;;20.73;53.20;101437.72;6220619;22;45457;-74
2021/09/28 03:46:07;;;;;;;;;5.00;4.00;;;;;20.68;52.74;101426.38;6247778;22;46223;-74
2021/09/28 03:48:33;;;;;;;;;5.75;4.00;;;;;20.69;52.30;101430.75;6247665;22;45200;-73
2021/09/28 03:50:59;;;;;;;;;7.00;5.00;;;;;20.67;52.60;101431.69;6248535;22;45153;-73
2021/09/28 03:53:24;;;;;;;;;5.50;4.50;;;;;20.64;53.09;101427.31;6220821;22;45155;-74
2021/09/28 03:55:50;;;;;;;;;5.25;4.75;;;;;20.62;52.87;101422.97;6220709;22;46863;-74
2021/09/28 03:58:16;;;;;;;;;5.00;3.25;;;;;20.63;53.32;101422.94;6221340;22;45247;-74
2021/09/28 04:00:42;;;;;;;;;4.50;4.50;;;;;20.65;52.47;101423.75;6195843;22;45214;-74
2021/09/28 04:03:07;;;;;;;;;3.00;3.00;;;;;20.71;53.72;101433.38;6246155;22;45834;-74
2021/09/28 04:05:33;;;;;;;;;5.00;4.00;;;;;20.71;53.93;101428.06;6220919;22;46284;-74
2021/09/28 04:07:58;;;;;;;;;5.00;4.00;;;;;20.82;53.07;101440.19;6248087;22;45288;-73
2021/09/28 04:10:24;;;;;;;;;5.50;5.50;;;;;20.84;53.29;101433.06;6245684;22;56626;-74
2021/09/28 04:12:49;;;;;;;;;4.25;4.25;;;;;20.98;52.37;101448.69;6195362;22;45409;-74
2021/09/28 04:15:16;;;;;;;;;4.00;4.00;;;;;20.94;52.48;101447.03;6220716;22;45363;-73
2021/09/28 04:17:42;;;;;;;;;4.00;4.00;;;;;20.88;52.87;101440.06;6220901;22;45370;-74
2021/09/28 04:20:07;;;;;;;;;4.75;4.00;;;;;20.93;53.39;101431.97;6247553;22;55327;-74
2021/09/28 04:22:33;;;;;;;;;4.25;4.00;;;;;21.06;52.51;101453.81;6248128;22;45168;-74
2021/09/28 04:24:58;;;;;;;;;5.00;4.00;;;;;21.08;53.16;101460.84;6245478;22;45562;-74
2021/09/28 04:27:23;;;;;;;;;6.00;2.75;;;;;21.07;52.93;101447.59;6247968;22;45158;-74
2021/09/28 04:29:49;;;;;;;;;4.25;4.00;;;;;21.09;53.09;101444.00;6220580;22;52902;-74
2021/09/28 04:32:14;;;;;;;;;4.50;4.50;;;;;21.04;52.66;101434.41;6245580;22;49745;-74
2021/09/28 04:34:40;;;;;;;;;3.25;3.25;;;;;20.99;52.44;101429.19;6247776;22;51774;-74
2021/09/28 04:37:05;;;;;;;;;3.50;3.50;;;;;20.99;51.81;101426.53;6195388;22;45736;-73
2021/09/28 04:39:31;;;;;;;;;4.75;4.00;;;;;21.01;51.64;101447.72;6247625;22;45156;-74
2021/09/28 04:41:56;;;;;;;;;4.00;4.00;;;;;20.90;51.94;101437.38;6221145;22;45582;-74
2021/09/28 04:44:22;;;;;;;;;3.75;3.50;;;;;20.85;52.64;101437.47;6221053;22;45445;-72
2021/09/28 04:46:47;;;;;;;;;5.50;5.50;;;;;20.89;52.75;101435.63;6195512;22;45201;-69
2021/09/28 04:49:13;;;;;;;;;2.25;2.25;;;;;20.92;52.74;101440.84;6247389;22;58225;-71
2021/09/28 04:51:38;;;;;;;;;3.50;3.50;;;;;20.93;52.77;101439.94;6247567;22;61664;-71
2021/09/28 04:54:03;;;;;;;;;4.00;4.00;;;;;20.99;52.32;101438.94;6248035;22;45876;-72
2021/09/28 04:56:29;;;;;;;;;6.25;4.00;;;;;21.03;52.57;101435.31;6220178;22;57243;-74
2021/09/28 04:58:54;;;;;;;;;5.25;4.50;;;;;21.08;52.89;101438.72;6195197;22;45512;-73
2021/09/28 05:01:20;;;;;;;;;3.50;3.50;;;;;21.18;52.52;101450.88;6220113;22;54998;-73
2021/09/28 05:03:45;;;;;;;;;3.00;3.00;;;;;21.21;52.60;101453.47;6193906;22;66186;-73
2021/09/28 05:06:11;;;;;;;;;3.50;3.50;;;;;21.21;52.17;101442.84;6220015;22;60365;-73
2021/09/28 05:08:37;;;;;;;;;3.00;3.00;;;;;21.25;51.91;101441.88;6220556;22;45374;-73
2021/09/28 05:11:02;;;;;;;;;4.75;4.75;;;;;21.26;51.64;101438.28;6220486;22;45427;-73
2021/09/28 05:13:28;;;;;;;;;4.00;4.00;;;;;21.26;51.72;101448.91;6194363;22;64230;-73
2021/09/28 05:15:54;;;;;;;;;3.75;3.00;;;;;21.20;52.23;101446.44;6194688;22;45146;-73
2021/09/28 05:18:19;;;;;;;;;4.50;4.00;;;;;21.26;53.15;101448.91;6194028;22;59728;-69
2021/09/28 05:20:45;;;;;;;;;6.00;6.00;;;;;21.33;53.64;101447.03;6194845;22;55238;-69
2021/09/28 05:23:10;;;;;;;;;5.75;4.00;;;;;21.48;53.81;101457.28;6220408;22;45955;-69
2021/09/28 05:25:35;;;;;;;;;7.00;3.50;;;;;21.57;54.13;101457.06;6220416;22;45161;-70
2021/09/28 05:28:01;;;;;;;;;6.00;5.25;;;;;21.66;54.08;101463.94;6194879;22;49216;-69
2021/09/28 05:30:26;;;;;;;;;4.50;4.00;;;;;21.72;54.30;101456.69;6193748;22;54564;-72
2021/09/28 05:32:52;;;;;;;;;6.00;5.00;;;;;21.80;54.48;101451.13;6194969;22;46056;-71
2021/09/28 05:35:17;;;;;;;;;4.75;4.75;;;;;21.86;54.41;101452.78;6194727;22;45798;-70
2021/09/28 05:37:42;;;;;;;;;8.00;7.00;;;;;21.89;54.40;101435.00;6220568;22;45132;-71
2021/09/28 05:40:08;;;;;;;;;4.00;3.00;;;;;21.96;54.23;101430.34;6194792;22;45404;-72
2021/09/28 05:42:34;;;;;;;;;6.75;4.00;;;;;22.00;54.11;101418.75;6194536;22;46884;-69
2021/09/28 05:44:59;;;;;;;;;5.50;4.75;;;;;22.00;54.09;101408.97;6169542;22;45296;-71
2021/09/28 05:47:28;;;;;;;;;5.75;5.25;;;;;22.07;54.28;101417.69;6194422;22;45384;-72
2021/09/28 05:49:53;;;;;;;;;5.50;5.50;;;;;22.05;53.88;101405.31;6194792;22;45439;-72
2021/09/28 05:52:19;;;;;;;;;5.00;5.00;;;;;22.08;53.96;101407.94;6219620;22;47251;-71
2021/09/28 05:54:47;;;;;;;;;6.50;5.50;;;;;;;;6194666;22;45129;-72
2021/09/28 05:57:15;;;;;;;;;3.00;3.00;;;;;;;;6221133;22;45564;-72
2021/09/28 05:59:41;;;;;;;;;3.75;3.00;;;;;22.07;53.06;101411.47;6220399;22;45418;-72
2021/09/28 06:02:06;;;;;;;;;7.50;5.00;;;;;;;;6219633;22;46260;-72
2021/09/28 06:04:32;;;;;;;;;5.67;3.67;;;;;22.10;52.23;101424.72;6219347;22;57031;-72
2021/09/28 06:06:58;;;;;;;;;6.50;4.50;;;;;22.04;51.98;101414.19;6195592;22;45237;-71
2021/09/28 06:09:23;;;;;;;;;6.00;5.00;;;;;22.10;51.33;101420.25;6170840;22;45569;-72
2021/09/28 06:11:49;;;;;;;;;3.00;3.00;;;;;22.08;51.61;101414.13;6194895;22;60913;-71
2021/09/28 06:14:14;;;;;;;;;6.00;4.50;;;;;22.08;50.74;101413.25;6196373;22;45207;-71
2021/09/28 06:16:40;;;;;;;;;7.00;4.75;;;;;22.09;50.96;101415.00;6195520;22;45206;-71
2021/09/28 06:19:05;;;;;;;;;4.00;4.00;;;;;22.10;50.67;101424.72;6171076;22;45308;-71
2021/09/28 06:21:31;;;;;;;;;5.00;4.75;;;;;22.12;50.88;101430.84;6196109;22;46011;-72
2021/09/28 06:23:56;;;;;;;;;7.75;4.50;;;;;22.12;50.99;101434.38;6196148;22;45121;-71
2021/09/28 06:26:21;;;;;;;;;6.75;5.50;;;;;22.14;51.30;101436.97;6196238;22;45196;-72
2021/09/28 06:28:47;;;;;;;;;4.00;4.00;;;;;22.11;51.61;101431.75;6170528;22;45526;-71
2021/09/28 06:31:12;;;;;;;;;5.50;4.75;;;;;22.11;51.60;101432.63;6195343;22;46642;-72
2021/09/28 06:33:38;;;;;;;;;6.00;4.50;;;;;22.12;51.42;101430.84;6169643;22;60425;-72
2021/09/28 06:36:06;;;;;;;;;7.25;5.00;;;;;22.13;51.85;101440.56;6195926;22;45252;-72
2021/09/28 06:38:31;;;;;;;;;8.00;5.75;;;;;22.12;52.32;101436.16;6247645;22;45276;-73
2021/09/28 06:40:58;;;;;;;;;6.25;4.00;;;;;22.18;51.87;101436.88;6195751;22;47377;-73
2021/09/28 06:43:24;;;;;;;;;4.25;4.25;;;;;22.20;52.69;101435.03;6248390;22;45149;-74
2021/09/28 06:45:49;;;;;;;;;4.50;4.50;;;;;22.28;52.91;101441.00;6221260;22;45435;-73
2021/09/28 06:48:16;;;;;;;;;6.25;5.00;;;;;22.31;53.01;101437.38;6194592;22;58022;-74
2021/09/28 06:50:41;;;;;;;;;6.25;5.50;;;;;22.36;53.03;101424.84;6196318;22;45199;-74
2021/09/28 06:53:07;;;;;;;;;5.50;4.25;;;;;22.40;52.94;101428.28;6220888;22;45208;-73
2021/09/28 06:55:35;;;;;;;;;7.00;4.00;;;;;22.44;52.65;101425.50;6196307;22;45678;-73
2021/09/28 06:58:01;;;;;;;;;6.00;5.00;;;;;22.49;52.41;101423.56;6222134;22;45356;-72
2021/09/28 07:00:26;;;;;;;;;6.00;4.50;;;;;22.52;52.77;101422.63;6195352;22;46513;-74
2021/09/28 07:02:52;;;;;;;;;5.00;4.00;;;;;22.55;52.08;101425.19;6170463;22;45560;-74
2021/09/28 07:05:20;;;;;;;;;5.50;5.00;;;;;22.55;52.58;101414.53;6195841;22;45277;-73
2021/09/28 07:07:45;;;;;;;;;5.00;5.00;;;;;22.62;52.47;101425.88;6171382;22;45404;-73
2021/09/28 07:10:11;;;;;;;;;6.50;5.00;;;;;22.64;52.50;101424.03;6195167;22;61742;-73
2021/09/28 07:12:36;;;;;;;;;6.25;5.00;;;;;22.65;52.21;101423.13;6248348;22;45230;-73
2021/09/28 07:15:05;;;;;;;;;4.25;4.00;;;;;22.66;51.91;101420.41;6170459;22;45317;-74
2021/09/28 07:17:31;;;;;;;;;5.00;4.75;;;;;22.64;52.51;101408.06;6195375;22;45312;-73
2021/09/28 07:19:56;;;;;;;;;6.00;5.00;;;;;22.70;51.98;101423.84;6196031;22;45706;-73
2021/09/28 07:22:25;;;;;;;;;4.00;4.00;;;;;22.72;52.38;101425.53;6248460;22;45182;-73
2021/09/28 07:24:50;;;;;;;;;7.00;5.00;;;;;22.70;51.77;101418.53;6221623;22;45276;-73
2021/09/28 07:27:16;;;;;;;;;6.00;5.00;;;;;22.72;52.36;101417.56;6220459;22;45256;-73
2021/09/28 07:29:41;;;;;;;;;7.00;6.00;;;;;22.74;52.08;101410.41;6195325;22;48082;-73
2021/09/28 07:32:07;;;;;;;;;5.50;4.75;;;;;22.79;51.68;101418.25;6195860;22;45289;-73
2021/09/28 07:34:32;;;;;;;;;4.25;4.25;;;;;22.77;52.34;101415.66;6196196;22;45198;-73
2021/09/28 07:36:58;;;;;;;;;5.00;4.00;;;;;22.82;52.16;101420.81;6195310;22;45407;-73
2021/09/28 07:39:23;;;;;;;;;4.50;4.50;;;;;22.81;51.49;101416.41;6194160;22;65265;-73
2021/09/28 07:41:49;;;;;;;;;4.75;4.75;;;;;22.83;51.74;101417.22;6169850;22;54422;-73
2021/09/28 07:44:14;;;;;;;;;5.25;4.75;;;;;22.81;51.66;101419.94;6220393;22;45305;-73
2021/09/28 07:46:39;;;;;;;;;4.75;4.00;;;;;22.81;52.15;101408.44;6194987;22;45340;-74
2021/09/28 07:49:05;;;;;;;;;5.75;4.50;;;;;22.77;51.89;101401.47;6169298;22;66271;-73
2021/09/28 07:51:30;;;;;;;;;7.00;6.00;;;;;22.83;51.37;101403.91;6195310;22;46109;-73
2021/09/28 07:53:56;;;;;;;;;8.00;5.00;;;;;22.88;51.78;101415.34;6220278;22;45391;-73
2021/09/28 07:56:21;;;;;;;;;7.00;5.50;;;;;22.86;51.92;101419.84;6195388;22;50302;-73
2021/09/28 07:58:47;;;;;;;;;7.00;5.25;;;;;22.88;51.52;101420.66;6195835;22;45339;-73
2021/09/28 08:01:13;;;;;;;;;6.00;5.50;;;;;22.83;51.36;101409.25;6195224;22;45751;-73
2021/09/28 08:03:38;;;;;;;;;6.25;6.25;;;;;22.91;51.35;101419.69;6220318;22;45202;-73
2021/09/28 08:06:03;;;;;;;;;7.50;6.75;;;;;22.90;51.77;101424.16;6247750;22;45066;-73
2021/09/28 08:08:29;;;;;;;;;7.50;6.00;;;;;22.89;51.70;101419.75;6194950;22;48189;-73
2021/09/28 08:10:55;;;;;;;;;6.00;6.00;;;;;22.91;51.68;101423.22;6195665;22;45183;-73
2021/09/28 08:13:21;;;;;;;;;6.00;6.00;;;;;22.90;51.52;101409.97;6195461;22;45232;-73
2021/09/28 08:15:47;;;;;;;;;7.75;6.25;;;;;22.93;51.80;101416.06;6195101;22;45762;-73
2021/09/28 08:18:12;;;;;;;;;8.75;6.00;;;;;22.93;51.44;101417.84;6220574;22;45217;-74
2021/09/28 08:20:38;;;;;;;;;6.00;6.00;;;;;22.94;51.37;101425.81;6195107;22;45174;-74
2021/09/28 08:23:03;;;;;;;;;6.00;6.00;;;;;22.95;51.46;101435.53;6195156;22;53604;-74
2021/09/28 08:30:56;;;;;;;;;6.00;5.00;;;;;22.99;52.01;101433.63;6203212;22;45191;-76
2021/09/28 08:33:22;;;;;;;;;5.00;5.00;;;;;23.00;51.83;101428.25;6195069;22;45320;-73
2021/09/28 08:35:47;;;;;;;;;7.25;5.50;;;;;23.05;52.43;101433.44;6220136;22;45199;-75
2021/09/28 08:38:14;;;;;;;;;7.50;6.25;;;;;23.07;51.68;101429.81;6246856;22;59187;-74
2021/09/28 08:40:40;;;;;;;;;5.50;4.25;;;;;23.04;51.63;101427.25;6196474;22;45198;-76
2021/09/28 08:43:05;;;;;;;;;8.50;6.25;;;;;23.06;52.09;101430.75;6248190;22;45257;-74
2021/09/28 08:45:31;;;;;;;;;7.75;7.75;;;;;23.06;52.19;101430.75;6219832;22;45883;-73
2021/09/28 08:47:56;;;;;;;;;11.50;9.00;;;;;23.08;52.61;101436.00;6169847;22;47541;-74
2021/09/28 08:50:22;;;;;;;;;13.00;10.50;;;;;23.09;52.82;101441.28;6220772;22;45475;-75
2021/09/28 08:52:49;;;;;;;;;10.25;9.75;;;;;23.11;52.53;101439.47;6245459;22;45324;-74
2021/09/28 08:55:14;;;;;;;;;16.25;12.50;;;;;23.08;52.78;101431.56;6195147;22;45111;-74
2021/09/28 08:57:41;;;;;;;;;13.00;10.00;;;;;23.11;53.19;101442.13;6195227;22;46046;-73
2021/09/28 09:00:16;;;;;;;;;10.25;8.75;;;;;23.13;52.25;101434.94;6170381;22;45677;-73
2021/09/28 09:02:45;;;;;;;;;9.75;8.50;;;;;23.13;52.87;101431.41;6247818;22;45264;-72
2021/09/28 09:05:14;;;;;;;;;11.00;8.25;;;;;23.07;52.97;101418.28;6247493;22;45398;-72
2021/09/28 09:07:40;;;;;;;;;11.75;6.50;;;;;23.15;52.42;101429.56;6220949;22;46483;-72
2021/09/28 09:10:06;;;;;;;;;7.50;7.00;;;;;23.13;52.28;101429.63;6194763;22;45867;-72
2021/09/28 09:12:40;;;;;;;;;7.25;7.00;;;;;23.15;52.22;101429.56;6196067;22;45190;-72
2021/09/28 09:15:18;;;;;;;;;10.50;7.25;;;;;23.18;52.26;101428.59;6196250;22;45182;-70
2021/09/28 09:17:47;;;;;;;;;11.00;7.00;;;;;23.19;52.58;101427.66;6247263;22;45282;-73
2021/09/28 09:20:46;;;;;;;;;7.50;6.00;;;;;23.20;52.87;101424.97;6247321;22;45341;-73
2021/09/28 09:23:14;;;;;;;;;8.00;6.50;;;;;23.22;52.68;101422.25;6218592;22;45396;-73
2021/09/28 09:25:40;;;;;;;;;7.50;6.75;;;;;23.22;52.48;101422.25;6219934;22;45345;-73
2021/09/28 09:28:18;;;;;;;;;7.00;6.00;;;;;23.23;52.61;101424.00;6194365;22;53104;-73
2021/09/28 09:30:44;;;;;;;;;7.50;5.50;;;;;23.16;52.77;101406.47;6220490;22;45234;-72
2021/09/28 09:33:09;;;;;;;;;8.25;6.75;;;;;23.18;53.09;101400.16;6219733;22;45287;-73
2021/09/28 09:35:35;;;;;;;;;38.25;32.25;;;;;23.24;54.93;101404.44;6247394;22;45226;-72
2021/09/28 09:38:11;;;;;;;;;34.50;30.25;;;;;23.26;57.72;101402.59;6194717;22;45244;-71
2021/09/28 09:40:45;;;;;;;;;26.25;24.25;;;;;23.29;58.96;101398.06;6194742;22;45168;-71
2021/09/28 09:43:11;;;;;;;;;19.50;19.25;;;;;23.33;60.06;101397.00;6197763;22;45166;-73
2021/09/28 09:45:37;;;;;;;;;21.25;17.50;;;;;23.37;61.16;101404.00;6195961;22;45296;-71
2021/09/28 09:48:34;;;;;;;;;15.25;12.00;;;;;23.43;59.97;101400.22;6221459;22;46317;-73
2021/09/28 09:51:13;;;;;;;;;9.75;8.00;;;;;23.41;59.13;101392.31;6165797;22;45749;-71
2021/09/28 09:53:52;;;;;;;;;11.00;9.75;;;;;23.39;58.44;101382.63;6197734;22;45257;-73
2021/09/28 09:56:18;;;;;;;;;8.25;8.25;;;;;23.42;57.33;101379.84;6221817;22;45227;-74
2021/09/28 09:58:43;;;;;;;;;6.00;6.00;;;;;23.44;56.60;101380.66;6195773;22;47047;-72
2021/09/28 10:01:08;;;;;;;;;9.00;8.00;;;;;23.43;55.28;101376.25;6195744;22;45277;-73
2021/09/28 10:03:38;;;;;;;;;8.75;7.25;;;;;23.45;54.89;101373.53;6195668;22;45447;-73
2021/09/28 10:06:06;;;;;;;;;8.00;8.00;;;;;23.44;54.36;101380.66;6246404;22;45449;-70
2021/09/28 10:08:32;;;;;;;;;11.25;7.25;;;;;23.34;54.15;101360.59;6171100;22;46485;-72
2021/09/28 10:10:58;;;;;;;;;8.00;7.50;;;;;23.39;53.73;101366.66;6196351;22;45231;-72
2021/09/28 10:13:45;;;;;;;;;9.25;8.00;;;;;23.40;53.74;101365.72;6195536;22;46051;-72
2021/09/28 10:16:29;;;;;;;;;8.00;6.00;;;;;23.40;53.42;101374.56;6220853;22;45745;-72
2021/09/28 10:18:55;;;;;;;;;7.00;5.50;;;;;23.39;53.90;101370.19;6248289;22;45409;-72
2021/09/28 10:21:42;;;;;;;;;7.00;6.25;;;;;23.39;53.17;101372.84;6221526;22;45281;-71
2021/09/28 10:24:29;;;;;;;;;8.25;5.50;;;;;23.38;52.90;101371.09;6248347;22;45276;-72
2021/09/28 10:27:00;;;;;;;;;6.75;5.00;;;;;23.38;53.14;101378.22;6248412;22;45226;-72
2021/09/28 10:29:38;;;;;;;;;5.00;4.25;;;;;23.38;53.15;101375.56;6220731;22;48446;-72
2021/09/28 10:32:22;;;;;;;;;6.25;5.25;;;;;23.37;52.93;101382.69;6220699;22;45236;-71
2021/09/28 10:35:21;;;;;;;;;6.50;6.50;;;;;23.36;53.46;101372.06;6221133;22;45257;-71
2021/09/28 10:37:49;;;;;;;;;6.00;5.75;;;;;23.35;53.30;101368.53;6248480;22;45111;-71
2021/09/28 10:40:17;;;;;;;;;10.25;5.00;;;;;23.35;53.47;101375.66;6219821;22;47397;-71
2021/09/28 10:42:52;;;;;;;;;10.00;5.75;;;;;23.34;52.95;101371.25;6220836;22;45387;-71
2021/09/28 10:45:18;;;;;;;;;6.50;6.25;;;;;23.34;52.65;101368.56;6221369;22;45308;-71
2021/09/28 10:47:44;;;;;;;;;4.75;4.00;;;;;23.33;52.85;101375.69;6221156;22;45217;-71
2021/09/28 10:50:24;;;;;;;;;6.25;5.75;;;;;23.28;52.75;101364.34;6248265;22;45430;-71
2021/09/28 10:52:50;;;;;;;;;5.00;4.25;;;;;23.31;53.43;101374.03;6195698;22;45328;-71
2021/09/28 10:55:15;;;;;;;;;6.25;6.25;;;;;23.31;53.34;101374.03;6170643;22;45295;-69
2021/09/28 10:58:15;;;;;;;;;6.00;4.75;;;;;23.31;53.74;101374.03;6248375;22;45217;-73
2021/09/28 11:00:40;;;;;;;;;6.75;5.25;;;;;23.31;53.69;101372.22;6220179;22;47122;-72
2021/09/28 11:03:06;;;;;;;;;6.50;4.50;;;;;23.26;53.39;101354.66;6248140;22;45189;-72
2021/09/28 11:05:32;;;;;;;;;8.50;5.00;;;;;23.31;53.09;101358.91;6170527;22;45344;-72
2021/09/28 11:07:59;;;;;;;;;7.75;4.00;;;;;23.32;53.48;101352.66;6220781;22;45188;-72
2021/09/28 11:10:25;;;;;;;;;5.00;4.25;;;;;23.33;52.92;101356.19;6221163;22;45233;-72
2021/09/28 11:12:50;;;;;;;;;8.25;5.25;;;;;23.32;52.94;101357.13;6195429;22;45278;-71
2021/09/28 11:15:26;;;;;;;;;4.00;3.50;;;;;23.31;53.08;101344.72;6247609;22;51274;-72
2021/09/28 11:17:51;;;;;;;;;6.00;4.00;;;;;23.31;52.74;101342.94;6220590;22;45399;-72
2021/09/28 11:20:28;;;;;;;;;9.00;6.75;;;;;23.27;52.91;101330.63;6248094;22;45397;-72
2021/09/28 11:23:00;;;;;;;;;6.75;3.00;;;;;23.32;53.15;101335.81;6222205;22;45205;-72
2021/09/28 11:25:26;;;;;;;;;7.75;4.25;;;;;23.31;52.60;101323.41;6221525;22;45337;-73
2021/09/28 11:28:08;;;;;;;;;3.00;2.00;;;;;23.32;52.01;101330.47;6219691;22;45446;-73
2021/09/28 11:30:35;;;;;;;;;3.00;2.50;;;;;23.30;49.86;101321.69;6210886;22;47185;-73